Time;durP1;ratioP1;P1;durP2;ratioP2;P2;SDS_P1;SDS_P2;PMS_P1;PMS_P2;Temp;Humidity;BMP_temperature;BMP_pressure;BME280_temperature;BME280_humidity;BME280_pressure;Samples;Min_cycle;Max_cycle;Signal;HPM_P1;HPM_P2
2022/08/09 00:00:17;;;;;;;8.93;5.45;;;15.50;99.90;;;;;;5044287;28;20045;-68
2022/08/09 00:02:43;;;;;;;8.88;6.40;;;15.40;99.90;;;;;;5052074;28;20050;-68
2022/08/09 00:05:11;;;;;;;8.35;6.43;;;15.40;99.90;;;;;;5071462;28;20061;-67
2022/08/09 00:07:37;;;;;;;9.65;5.78;;;15.40;99.90;;;;;;5070465;28;20029;-68
2022/08/09 00:10:03;;;;;;;8.80;5.53;;;15.30;99.90;;;;;;5052152;28;20417;-69
2022/08/09 00:12:29;;;;;;;9.60;5.70;;;15.30;99.90;;;;;;5068028;28;20033;-67
2022/08/09 00:14:55;;;;;;;9.43;5.45;;;15.30;99.90;;;;;;5052638;28;20048;-68
2022/08/09 00:17:21;;;;;;;10.73;5.25;;;15.30;99.90;;;;;;5040781;28;20040;-68
2022/08/09 00:19:47;;;;;;;7.82;5.38;;;15.30;99.90;;;;;;5071236;28;20483;-67
2022/08/09 00:22:13;;;;;;;12.18;6.05;;;15.20;99.90;;;;;;5065597;28;20386;-68
2022/08/09 00:24:39;;;;;;;8.60;5.38;;;15.20;99.90;;;;;;5038646;28;20503;-68
2022/08/09 00:27:04;;;;;;;8.55;5.07;;;15.20;99.90;;;;;;5044903;28;20059;-69
2022/08/09 00:29:33;;;;;;;8.60;5.88;;;15.20;99.90;;;;;;5044751;28;20048;-68
2022/08/09 00:31:58;;;;;;;9.15;5.47;;;15.20;99.90;;;;;;5070917;28;20036;-67
2022/08/09 00:34:24;;;;;;;11.32;5.22;;;15.20;99.90;;;;;;5061852;28;20425;-68
2022/08/09 00:36:53;;;;;;;6.97;5.40;;;15.10;99.90;;;;;;5067945;28;20047;-69
2022/08/09 00:39:19;;;;;;;7.95;5.47;;;15.10;99.90;;;;;;5044883;28;20036;-68
2022/08/09 00:41:45;;;;;;;9.70;6.15;;;15.10;99.90;;;;;;5051736;28;20055;-67
2022/08/09 00:44:10;;;;;;;11.88;5.43;;;15.10;99.90;;;;;;5068754;28;20029;-68
2022/08/09 00:46:40;;;;;;;8.82;5.35;;;15.10;99.90;;;;;;5069539;28;20082;-67
2022/08/09 00:49:06;;;;;;;12.10;6.22;;;15.10;99.90;;;;;;5045705;28;20072;-67
2022/08/09 00:51:32;;;;;;;8.05;5.95;;;15.10;99.90;;;;;;5043864;28;20088;-67
2022/08/09 00:53:57;;;;;;;10.98;6.40;;;15.10;99.90;;;;;;5051369;28;20135;-68
2022/08/09 00:56:23;;;;;;;10.30;5.43;;;15.10;99.90;;;;;;5069577;28;20136;-67
2022/08/09 00:58:50;;;;;;;8.18;5.80;;;15.00;99.90;;;;;;5069649;28;20044;-68
2022/08/09 01:01:23;;;;;;;10.60;5.68;;;15.00;99.90;;;;;;5070208;28;20124;-68
2022/08/09 01:04:01;;;;;;;11.73;5.85;;;15.00;99.90;;;;;;5070213;28;20048;-68
2022/08/09 01:06:30;;;;;;;;;;;15.00;99.90;;;;;;5046263;28;20041;-68
2022/08/09 01:09:12;;;;;;;9.35;6.07;;;15.00;99.90;;;;;;5070259;28;20110;-68
2022/08/09 01:12:19;;;;;;;9.98;6.40;;;15.00;99.90;;;;;;5064755;28;20036;-68
2022/08/09 01:14:54;;;;;;;7.93;5.70;;;14.90;99.90;;;;;;5034498;28;20049;-69
2022/08/09 01:17:50;;;;;;;13.60;6.88;;;15.00;99.90;;;;;;5049984;28;20048;-68
2022/08/09 01:20:54;;;;;;;14.00;7.18;;;14.90;99.90;;;;;;5031161;28;20052;-68
2022/08/09 01:23:35;;;;;;;11.68;6.70;;;14.90;99.90;;;;;;5017023;28;20500;-67
2022/08/09 01:26:26;;;;;;;10.00;6.40;;;14.80;99.90;;;;;;5074007;28;20044;-67
2022/08/09 01:28:55;;;;;;;7.25;6.18;;;14.90;99.90;;;;;;5070124;28;20044;-68
2022/08/09 01:31:26;;;;;;;10.27;6.60;;;14.90;99.90;;;;;;5039978;28;20064;-68
2022/08/09 01:33:55;;;;;;;8.00;6.57;;;14.80;99.90;;;;;;5048343;28;20040;-68
2022/08/09 01:36:24;;;;;;;10.55;7.03;;;14.80;99.90;;;;;;5069170;28;20091;-68
2022/08/09 01:38:51;;;;;;;9.85;6.35;;;14.70;99.90;;;;;;5072909;28;20036;-68
2022/08/09 01:41:21;;;;;;;10.07;6.63;;;14.70;99.90;;;;;;5046898;28;20033;-68
2022/08/09 01:43:50;;;;;;;10.82;6.68;;;14.70;99.90;;;;;;5071878;28;20131;-67
2022/08/09 01:46:20;;;;;;;12.00;6.05;;;14.70;99.90;;;;;;5043974;28;20060;-68
2022/08/09 01:48:47;;;;;;;7.63;6.18;;;14.70;99.90;;;;;;5049210;28;20098;-66
2022/08/09 01:51:14;;;;;;;11.25;7.07;;;14.70;99.90;;;;;;5048260;28;20043;-68
2022/08/09 01:53:44;;;;;;;12.10;7.38;;;14.70;99.90;;;;;;5054900;28;20044;-68
2022/08/09 01:56:12;;;;;;;7.47;6.60;;;14.60;99.90;;;;;;5066616;28;20044;-67
2022/08/09 01:58:41;;;;;;;8.68;6.78;;;14.50;99.90;;;;;;5052646;28;20041;-69
2022/08/09 02:01:07;;;;;;;10.40;6.57;;;14.50;99.90;;;;;;5071182;28;20036;-68
2022/08/09 02:03:35;;;;;;;11.73;7.47;;;14.60;99.90;;;;;;5073847;28;20086;-69
2022/08/09 02:06:03;;;;;;;;;;;14.60;99.90;;;;;;5055701;28;20506;-69
2022/08/09 02:08:32;;;;;;;11.50;7.53;;;14.60;99.90;;;;;;5055957;28;20451;-68
2022/08/09 02:11:01;;;;;;;10.70;6.85;;;14.50;99.90;;;;;;5073673;28;20498;-68
2022/08/09 02:13:28;;;;;;;10.10;6.90;;;14.50;99.90;;;;;;5036085;28;20075;-68
2022/08/09 02:15:55;;;;;;;13.20;6.72;;;14.50;99.90;;;;;;5072355;28;20427;-68
2022/08/09 02:18:28;;;;;;;10.95;6.88;;;14.50;99.90;;;;;;5069951;28;20132;-67
2022/08/09 02:21:13;;;;;;;10.88;6.15;;;14.50;99.90;;;;;;5062709;28;20079;-67
2022/08/09 02:23:51;;;;;;;11.63;7.13;;;14.50;99.90;;;;;;5071787;28;20124;-68
2022/08/09 02:26:18;;;;;;;7.60;6.00;;;14.50;99.90;;;;;;5070009;28;20051;-68
2022/08/09 02:28:50;;;;;;;10.43;6.50;;;14.50;99.90;;;;;;5070463;28;20132;-67
2022/08/09 02:31:29;;;;;;;10.55;7.25;;;14.50;99.90;;;;;;5065924;28;20494;-68
2022/08/09 02:34:00;;;;;;;11.70;7.53;;;14.50;99.90;;;;;;5066175;28;20049;-68
2022/08/09 02:36:34;;;;;;;10.50;6.70;;;14.40;99.90;;;;;;5066802;28;20127;-68
2022/08/09 02:39:04;;;;;;;8.55;6.63;;;14.50;99.90;;;;;;5065694;28;20478;-67
2022/08/09 02:41:56;;;;;;;8.77;7.05;;;14.40;99.90;;;;;;5067558;28;20131;-67
2022/08/09 02:44:25;;;;;;;9.98;6.60;;;14.40;99.90;;;;;;5069375;28;20037;-68
2022/08/09 02:46:56;;;;;;;10.63;7.45;;;14.40;99.90;;;;;;5071105;28;20449;-68
2022/08/09 02:49:26;;;;;;;11.18;6.88;;;14.40;99.90;;;;;;5071122;28;20044;-68
2022/08/09 02:51:57;;;;;;;11.43;7.78;;;14.50;99.90;;;;;;5070216;28;20110;-69
2022/08/09 02:54:24;;;;;;;9.57;7.13;;;14.40;99.90;;;;;;5072961;28;20131;-68
2022/08/09 02:56:51;;;;;;;10.98;7.32;;;14.40;99.90;;;;;;5072185;28;20059;-68
2022/08/09 02:59:19;;;;;;;15.95;6.65;;;14.40;99.90;;;;;;5058206;28;20502;-69
2022/08/09 03:01:46;;;;;;;10.73;7.07;;;14.40;99.90;;;;;;5051150;28;20090;-67
2022/08/09 03:04:13;;;;;;;7.68;6.18;;;14.40;99.90;;;;;;5072074;28;20076;-67
2022/08/09 03:06:41;;;;;;;9.05;6.50;;;14.40;99.90;;;;;;5067248;28;20119;-68
2022/08/09 03:09:09;;;;;;;9.80;7.32;;;14.40;99.90;;;;;;5036913;28;20040;-68
2022/08/09 03:11:42;;;;;;;10.32;6.78;;;14.30;99.90;;;;;;5072282;28;20481;-69
2022/08/09 03:14:09;;;;;;;12.82;6.88;;;14.30;99.90;;;;;;5070892;28;20134;-68
2022/08/09 03:16:39;;;;;;;9.30;6.38;;;14.40;99.90;;;;;;5065216;28;20052;-67
2022/08/09 03:19:05;;;;;;;13.07;7.97;;;14.30;99.90;;;;;;5054908;28;20043;-67
2022/08/09 03:21:32;;;;;;;10.55;6.22;;;14.30;99.90;;;;;;5053089;28;20052;-68
2022/08/09 03:23:57;;;;;;;11.40;6.90;;;14.30;99.90;;;;;;5050425;28;20048;-68
2022/08/09 03:26:24;;;;;;;8.65;6.75;;;14.30;99.90;;;;;;5071054;28;20049;-67
2022/08/09 03:28:54;;;;;;;12.77;7.43;;;14.30;99.90;;;;;;5072174;28;20417;-67
2022/08/09 03:31:20;;;;;;;11.73;7.63;;;14.30;99.90;;;;;;5064601;28;20107;-68
2022/08/09 03:33:47;;;;;;;15.05;7.82;;;14.30;99.90;;;;;;5071575;28;20040;-67
2022/08/09 03:36:13;;;;;;;9.77;7.30;;;14.20;99.90;;;;;;5069963;28;20502;-66
2022/08/09 03:38:41;;;;;;;12.60;7.75;;;14.30;99.90;;;;;;5067464;28;20048;-69
2022/08/09 03:41:09;;;;;;;11.00;6.93;;;14.30;99.90;;;;;;5052007;28;20093;-68
2022/08/09 03:43:35;;;;;;;11.80;7.68;;;14.20;99.90;;;;;;5068128;28;20482;-69
2022/08/09 03:46:01;;;;;;;14.80;8.20;;;14.20;99.90;;;;;;5071259;28;20133;-67
2022/08/09 03:48:28;;;;;;;12.23;7.90;;;14.20;99.90;;;;;;5035343;28;20450;-68
2022/08/09 03:50:55;;;;;;;10.38;7.30;;;14.20;99.90;;;;;;5066780;28;20041;-69
2022/08/09 03:53:23;;;;;;;15.27;7.45;;;14.20;99.90;;;;;;5070763;28;20036;-67
2022/08/09 03:55:49;;;;;;;10.57;7.18;;;14.20;99.90;;;;;;5070199;28;20036;-68
2022/08/09 03:58:16;;;;;;;10.55;7.18;;;14.20;99.90;;;;;;5071793;28;20052;-67
2022/08/09 04:00:43;;;;;;;8.57;6.35;;;14.20;99.90;;;;;;5053387;28;20478;-68
2022/08/09 04:03:09;;;;;;;11.55;7.22;;;14.20;99.90;;;;;;5053715;28;20524;-67
2022/08/09 04:05:35;;;;;;;11.93;7.32;;;14.20;99.90;;;;;;5070421;28;20482;-67
2022/08/09 04:08:01;;;;;;;11.50;6.95;;;14.10;99.90;;;;;;5058797;28;20041;-68
2022/08/09 04:10:29;;;;;;;14.65;7.55;;;14.10;99.90;;;;;;5071037;28;20040;-67
2022/08/09 04:12:58;;;;;;;12.13;6.63;;;14.20;99.90;;;;;;5071473;28;20051;-67
2022/08/09 04:15:24;;;;;;;9.45;6.22;;;14.20;99.90;;;;;;5069559;28;20151;-68
2022/08/09 04:17:49;;;;;;;10.25;6.53;;;14.20;99.90;;;;;;5045225;28;20510;-68
2022/08/09 04:20:16;;;;;;;10.82;6.97;;;14.10;99.90;;;;;;5064536;28;20040;-68
2022/08/09 04:22:44;;;;;;;9.82;6.63;;;14.10;99.90;;;;;;5063155;28;20125;-67
2022/08/09 04:25:10;;;;;;;11.20;6.55;;;14.10;99.90;;;;;;5071054;28;20472;-68
2022/08/09 04:27:42;;;;;;;9.02;6.10;;;14.10;99.90;;;;;;5069238;28;20774;-70
2022/08/09 04:30:13;;;;;;;10.13;6.07;;;14.10;99.90;;;;;;5070980;28;20041;-68
2022/08/09 04:32:39;;;;;;;11.95;5.20;;;14.10;99.90;;;;;;5068795;28;20037;-68
2022/08/09 04:35:08;;;;;;;10.25;5.97;;;14.10;99.90;;;;;;5052450;28;20056;-68
2022/08/09 04:37:34;;;;;;;8.93;5.72;;;14.20;99.90;;;;;;5061313;28;20405;-67
2022/08/09 04:40:00;;;;;;;7.63;5.80;;;14.20;99.90;;;;;;5070241;28;20043;-68
2022/08/09 04:42:30;;;;;;;10.15;5.45;;;14.20;99.90;;;;;;5070738;28;20033;-68
2022/08/09 04:44:56;;;;;;;8.82;5.30;;;14.10;99.90;;;;;;5062213;28;20041;-68
2022/08/09 04:47:23;;;;;;;7.68;5.45;;;14.20;99.90;;;;;;5064925;28;20413;-68
2022/08/09 04:49:50;;;;;;;10.23;5.93;;;14.20;99.90;;;;;;5069831;28;20054;-68
2022/08/09 04:52:16;;;;;;;10.43;5.63;;;14.30;99.90;;;;;;5027574;28;20048;-68
2022/08/09 04:54:42;;;;;;;10.60;5.68;;;14.30;99.90;;;;;;5070692;28;20037;-68
2022/08/09 04:57:07;;;;;;;15.68;5.60;;;14.30;99.90;;;;;;5069685;28;20044;-69
2022/08/09 04:59:33;;;;;;;8.73;5.28;;;14.30;99.90;;;;;;5044664;28;20120;-67
2022/08/09 05:01:59;;;;;;;12.23;5.25;;;14.50;99.90;;;;;;5067881;28;20040;-67
2022/08/09 05:04:24;;;;;;;13.13;5.43;;;14.50;99.90;;;;;;5070760;28;20037;-66
2022/08/09 05:06:50;;;;;;;10.95;5.70;;;14.70;99.90;;;;;;5070600;28;20429;-68
2022/08/09 05:09:16;;;;;;;12.95;5.18;;;14.70;99.90;;;;;;5068821;28;20045;-68
2022/08/09 05:11:41;;;;;;;13.90;5.10;;;14.80;99.90;;;;;;5070402;28;20174;-68
2022/08/09 05:14:07;;;;;;;6.90;5.25;;;14.80;99.90;;;;;;5052159;28;20165;-68
2022/08/09 05:16:34;;;;;;;8.52;5.10;;;14.70;99.90;;;;;;5068886;28;20528;-68
2022/08/09 05:18:59;;;;;;;8.82;5.47;;;14.80;99.90;;;;;;5070162;28;20167;-68
2022/08/09 05:21:26;;;;;;;9.20;4.97;;;14.70;99.90;;;;;;5068809;28;20067;-68
2022/08/09 05:23:52;;;;;;;15.10;5.50;;;14.80;99.90;;;;;;5059296;28;20040;-66
2022/08/09 05:26:18;;;;;;;13.05;6.32;;;14.80;99.90;;;;;;5051745;28;20055;-68
2022/08/09 05:28:44;;;;;;;10.43;5.80;;;14.90;99.90;;;;;;5069179;28;20115;-68
2022/08/09 05:31:10;;;;;;;13.20;5.60;;;14.90;99.90;;;;;;5070111;28;20113;-68
2022/08/09 05:33:36;;;;;;;13.18;5.57;;;14.90;99.90;;;;;;5067864;28;20064;-68
2022/08/09 05:36:03;;;;;;;10.48;5.45;;;15.00;99.90;;;;;;5061739;28;20048;-68
2022/08/09 05:38:29;;;;;;;10.43;5.97;;;15.10;99.90;;;;;;5061308;28;20040;-67
2022/08/09 05:40:55;;;;;;;8.55;5.60;;;15.20;99.90;;;;;;5069199;28;20048;-69
2022/08/09 05:43:21;;;;;;;12.20;5.40;;;15.30;99.90;;;;;;5070082;28;20090;-68
2022/08/09 05:45:47;;;;;;;6.68;5.13;;;15.40;99.90;;;;;;5065207;28;20048;-68
2022/08/09 05:48:12;;;;;;;10.55;5.82;;;15.50;99.90;;;;;;5051478;28;20075;-68
2022/08/09 05:50:40;;;;;;;9.90;5.95;;;15.60;99.90;;;;;;5070233;28;20059;-68
2022/08/09 05:53:10;;;;;;;10.18;5.93;;;15.60;99.90;;;;;;5069519;28;20123;-68
2022/08/09 05:55:38;;;;;;;11.48;5.03;;;15.70;99.90;;;;;;5069511;28;20055;-67
2022/08/09 05:58:04;;;;;;;11.60;5.72;;;15.80;99.90;;;;;;5050928;28;20114;-68
2022/08/09 06:00:30;;;;;;;8.15;4.85;;;15.90;99.90;;;;;;5062426;28;20437;-68
2022/08/09 06:02:57;;;;;;;6.75;4.68;;;16.00;99.90;;;;;;5064282;28;20119;-68
2022/08/09 06:05:24;;;;;;;8.98;5.45;;;16.10;99.90;;;;;;5050629;28;20044;-69
2022/08/09 06:07:50;;;;;;;8.90;5.00;;;16.20;99.90;;;;;;5073412;28;20429;-67
2022/08/09 06:10:15;;;;;;;7.07;4.57;;;16.30;99.90;;;;;;5072924;28;20286;-67
2022/08/09 06:12:41;;;;;;;7.43;4.07;;;16.40;99.90;;;;;;5072569;28;20032;-70
2022/08/09 06:15:08;;;;;;;5.82;3.92;;;16.50;99.90;;;;;;5073858;28;20040;-68
2022/08/09 06:17:34;;;;;;;8.90;4.43;;;16.60;99.90;;;;;;5072730;28;20055;-67
2022/08/09 06:19:59;;;;;;;7.10;3.92;;;16.70;99.90;;;;;;5072596;28;20036;-68
2022/08/09 06:22:25;;;;;;;6.75;4.00;;;16.90;99.90;;;;;;5022682;28;20052;-69
2022/08/09 06:24:51;;;;;;;6.28;3.58;;;17.00;99.90;;;;;;5045504;28;20055;-68
2022/08/09 06:27:19;;;;;;;7.13;4.03;;;17.10;99.90;;;;;;5069126;28;20322;-67
2022/08/09 06:29:48;;;;;;;6.60;3.90;;;17.30;99.90;;;;;;5067621;28;20048;-68
2022/08/09 06:32:14;;;;;;;6.40;3.60;;;17.40;99.90;;;;;;5067866;28;20040;-69
2022/08/09 06:34:39;;;;;;;7.47;3.65;;;17.60;99.90;;;;;;5066288;28;20064;-67
2022/08/09 06:37:05;;;;;;;8.10;2.90;;;17.80;99.90;;;;;;5067928;28;20033;-68
2022/08/09 06:39:31;;;;;;;7.68;2.92;;;18.20;99.90;;;;;;5053324;28;20508;-68
2022/08/09 06:41:57;;;;;;;5.15;2.67;;;18.70;99.90;;;;;;5032219;28;20059;-67
2022/08/09 06:44:23;;;;;;;7.97;2.85;;;19.20;99.90;;;;;;5073029;28;20040;-68
2022/08/09 06:46:50;;;;;;;4.03;2.20;;;19.60;99.90;;;;;;5053953;28;20109;-67
2022/08/09 06:49:16;;;;;;;5.05;2.60;;;19.80;99.90;;;;;;5069323;28;20134;-68
2022/08/09 06:51:45;;;;;;;6.78;2.40;;;19.80;99.90;;;;;;5055045;28;20051;-68
2022/08/09 06:54:13;;;;;;;4.32;2.10;;;19.80;99.90;;;;;;5054160;28;20048;-67
2022/08/09 06:56:39;;;;;;;5.45;2.05;;;19.80;99.90;;;;;;5049254;28;20059;-67
2022/08/09 06:59:04;;;;;;;5.32;2.30;;;19.90;99.90;;;;;;5053754;28;20036;-67
2022/08/09 07:01:30;;;;;;;8.60;2.55;;;19.90;99.90;;;;;;5069564;28;20040;-68
2022/08/09 07:03:59;;;;;;;4.70;2.08;;;19.80;99.90;;;;;;5066922;28;20036;-67
2022/08/09 07:06:31;;;;;;;8.23;2.20;;;19.70;99.90;;;;;;5071660;28;20040;-68
2022/08/09 07:08:57;;;;;;;4.63;2.30;;;19.50;99.90;;;;;;5072352;28;20041;-67
2022/08/09 07:11:22;;;;;;;4.45;2.40;;;19.40;99.90;;;;;;5063997;28;20047;-69
2022/08/09 07:13:48;;;;;;;5.65;2.72;;;19.50;99.90;;;;;;5067662;28;20048;-68
2022/08/09 07:16:14;;;;;;;3.83;2.53;;;19.60;99.90;;;;;;5071520;28;20486;-68
2022/08/09 07:18:39;;;;;;;7.20;3.05;;;19.70;99.90;;;;;;5070413;28;20032;-67
2022/08/09 07:21:08;;;;;;;6.75;2.80;;;19.70;99.90;;;;;;5054303;28;20510;-67
2022/08/09 07:23:34;;;;;;;8.02;2.40;;;19.70;99.90;;;;;;5070219;28;20033;-67
2022/08/09 07:26:00;;;;;;;4.90;2.10;;;19.70;99.90;;;;;;5072391;28;20133;-67
2022/08/09 07:28:29;;;;;;;6.35;2.35;;;19.80;99.90;;;;;;5072155;28;20486;-70
2022/08/09 07:30:55;;;;;;;6.32;2.28;;;20.00;99.90;;;;;;5069817;28;20044;-67
2022/08/09 07:33:21;;;;;;;6.25;2.40;;;19.90;99.90;;;;;;5071875;28;20159;-68
2022/08/09 07:35:50;;;;;;;3.65;2.30;;;19.90;99.90;;;;;;5069623;28;20114;-68
2022/08/09 07:38:15;;;;;;;6.32;2.40;;;20.00;99.90;;;;;;5058186;28;20064;-68
2022/08/09 07:40:41;;;;;;;7.90;2.63;;;20.20;99.90;;;;;;5071675;28;20134;-68
2022/08/09 07:43:07;;;;;;;6.07;2.40;;;20.20;99.90;;;;;;5070938;28;20047;-67
2022/08/09 07:45:32;;;;;;;6.82;2.65;;;20.10;99.90;;;;;;5049940;28;20036;-67
2022/08/09 07:47:58;;;;;;;5.82;2.40;;;20.10;99.90;;;;;;5063473;28;20076;-66
2022/08/09 07:50:28;;;;;;;3.33;2.00;;;20.10;99.90;;;;;;5071680;28;20036;-67
2022/08/09 07:52:54;;;;;;;4.60;2.00;;;20.10;99.90;;;;;;5065919;28;20390;-67
2022/08/09 07:55:21;;;;;;;3.47;1.92;;;20.10;99.90;;;;;;5069668;28;20044;-67
2022/08/09 07:57:47;;;;;;;4.35;2.17;;;20.00;99.90;;;;;;5071499;28;20562;-66
2022/08/09 08:00:18;;;;;;;3.03;1.70;;;19.90;99.90;;;;;;5070490;28;20128;-67
2022/08/09 08:02:45;;;;;;;3.60;1.67;;;19.90;99.90;;;;;;5064781;28;20090;-67
2022/08/09 08:05:11;;;;;;;1.73;1.30;;;20.10;99.90;;;;;;5071676;28;20445;-68
2022/08/09 08:07:37;;;;;;;5.25;1.60;;;20.00;99.90;;;;;;5035818;28;20052;-67
2022/08/09 08:10:04;;;;;;;3.70;1.60;;;20.10;99.90;;;;;;5053462;28;20037;-68
2022/08/09 08:12:30;;;;;;;5.78;1.70;;;20.10;99.90;;;;;;5069909;28;20552;-68
2022/08/09 08:14:56;;;;;;;5.13;1.83;;;20.20;99.90;;;;;;5061773;28;20036;-68
2022/08/09 08:17:22;;;;;;;2.85;1.40;;;20.10;99.90;;;;;;5050794;28;20106;-68
2022/08/09 08:19:48;;;;;;;3.70;1.60;;;20.20;99.90;;;;;;5070241;28;20044;-68
2022/08/09 08:22:14;;;;;;;2.63;1.17;;;20.30;99.90;;;;;;5071529;28;20136;-67
2022/08/09 08:24:40;;;;;;;2.70;1.17;;;20.60;99.90;;;;;;5039558;28;20483;-69
2022/08/09 08:27:09;;;;;;;2.30;1.20;;;20.90;99.90;;;;;;5067712;28;20049;-68
2022/08/09 08:29:34;;;;;;;3.03;1.15;;;21.20;99.90;;;;;;5070478;28;20051;-67
2022/08/09 08:32:00;;;;;;;2.55;1.10;;;21.40;99.90;;;;;;5052014;28;20040;-68
2022/08/09 08:34:26;;;;;;;2.42;1.15;;;21.50;99.90;;;;;;5031427;28;20175;-68
2022/08/09 08:36:52;;;;;;;2.13;1.10;;;21.60;99.90;;;;;;5062345;28;20052;-66
2022/08/09 08:39:17;;;;;;;4.72;1.40;;;21.70;99.90;;;;;;5070866;28;20049;-67
2022/08/09 08:41:44;;;;;;;2.63;1.30;;;21.60;99.90;;;;;;5062296;28;20487;-67
2022/08/09 08:44:12;;;;;;;3.00;1.30;;;21.40;99.90;;;;;;5067974;28;20478;-67
2022/08/09 08:46:40;;;;;;;2.83;1.20;;;21.30;99.90;;;;;;5070632;28;20041;-67
2022/08/09 08:49:07;;;;;;;1.25;1.00;;;21.20;99.90;;;;;;5062642;28;20409;-67
2022/08/09 08:51:33;;;;;;;1.58;1.08;;;21.00;99.90;;;;;;5069499;28;20563;-69
2022/08/09 08:54:05;;;;;;;2.88;1.10;;;20.90;99.90;;;;;;5052365;28;20044;-67
2022/08/09 08:56:38;;;;;;;4.65;1.13;;;20.90;99.90;;;;;;5059888;28;20466;-66
2022/08/09 08:59:07;;;;;;;2.90;1.20;;;20.90;99.90;;;;;;5070655;28;20131;-66
2022/08/09 09:01:41;;;;;;;4.38;1.70;;;21.00;99.90;;;;;;5069219;28;20086;-66
2022/08/09 09:04:12;;;;;;;3.63;1.40;;;21.00;99.90;;;;;;5057719;28;20044;-67
2022/08/09 09:06:40;;;;;;;2.53;1.23;;;21.00;99.90;;;;;;5049190;28;20117;-66
2022/08/09 09:09:07;;;;;;;4.18;1.20;;;21.00;99.90;;;;;;5029734;28;20040;-66
2022/08/09 09:11:34;;;;;;;3.40;1.17;;;21.00;99.90;;;;;;5069377;28;20094;-67
2022/08/09 09:14:12;;;;;;;2.47;1.52;;;21.00;99.90;;;;;;5068768;28;20042;-67
2022/08/09 09:16:38;;;;;;;2.83;1.38;;;21.10;99.90;;;;;;5052075;28;20037;-67
2022/08/09 09:19:07;;;;;;;3.85;1.40;;;21.10;99.90;;;;;;5059313;28;20098;-67
2022/08/09 09:21:33;;;;;;;4.88;1.40;;;21.20;99.90;;;;;;5059997;28;20039;-67
2022/08/09 09:24:04;;;;;;;3.92;1.50;;;21.20;99.90;;;;;;5050266;28;20139;-66
2022/08/09 09:26:30;;;;;;;2.38;1.17;;;21.20;99.90;;;;;;5051514;28;20047;-67
2022/08/09 09:28:56;;;;;;;3.08;1.17;;;21.30;99.90;;;;;;5069544;28;20036;-67
2022/08/09 09:31:23;;;;;;;3.60;1.42;;;21.30;99.90;;;;;;5021015;28;20397;-66
2022/08/09 09:33:51;;;;;;;2.83;1.20;;;21.40;99.90;;;;;;5069398;28;20055;-67
2022/08/09 09:36:17;;;;;;;4.32;1.60;;;21.30;99.90;;;;;;5061323;28;20063;-67
2022/08/09 09:38:48;;;;;;;2.85;1.40;;;21.50;99.90;;;;;;5063891;28;20045;-67
2022/08/09 09:41:26;;;;;;;3.03;1.52;;;21.50;99.90;;;;;;5036982;28;20067;-66
2022/08/09 09:44:00;;;;;;;3.25;1.50;;;21.50;99.90;;;;;;5074385;28;20044;-69
2022/08/09 09:46:39;;;;;;;2.47;1.10;;;21.40;99.90;;;;;;5073285;28;20040;-68
2022/08/09 09:49:07;;;;;;;4.13;1.50;;;21.40;99.90;;;;;;5056083;28;20043;-67
2022/08/09 09:51:34;;;;;;;3.92;1.30;;;21.40;99.90;;;;;;5065026;28;20461;-66
2022/08/09 09:54:12;;;;;;;2.08;1.10;;;21.40;99.90;;;;;;5066717;28;20033;-65
2022/08/09 09:56:43;;;;;;;2.42;0.95;;;21.50;99.90;;;;;;5054337;28;20079;-67
2022/08/09 09:59:10;;;;;;;3.67;1.30;;;21.40;99.90;;;;;;5050627;28;20044;-69
2022/08/09 10:01:41;;;;;;;1.80;1.20;;;21.30;99.90;;;;;;5064406;28;20045;-66
2022/08/09 10:04:18;;;;;;;2.90;1.40;;;21.40;99.90;;;;;;5074026;28;20544;-68
2022/08/09 10:06:48;;;;;;;1.85;1.15;;;21.40;99.90;;;;;;5069950;28;20136;-66
2022/08/09 10:09:15;;;;;;;2.60;1.35;;;21.60;99.90;;;;;;5073339;28;20465;-68
2022/08/09 10:11:41;;;;;;;1.55;0.90;;;21.70;99.90;;;;;;5072657;28;20087;-65
2022/08/09 10:14:21;;;;;;;2.08;1.10;;;21.80;99.60;;;;;;5073358;28;20044;-67
2022/08/09 10:16:51;;;;;;;1.63;0.95;;;22.10;99.70;;;;;;5038334;28;20121;-66
2022/08/09 10:19:17;;;;;;;2.92;1.10;;;22.30;99.90;;;;;;5065813;28;20044;-67
2022/08/09 10:21:47;;;;;;;4.32;1.15;;;22.70;99.70;;;;;;5073788;28;20036;-67
2022/08/09 10:24:19;;;;;;;1.50;0.70;;;23.00;99.80;;;;;;5068440;28;20080;-67
2022/08/09 10:26:46;;;;;;;1.42;0.85;;;23.30;99.50;;;;;;5072665;28;20040;-67
2022/08/09 10:29:13;;;;;;;1.75;0.88;;;23.60;99.40;;;;;;5064267;28;20048;-68
2022/08/09 10:31:39;;;;;;;1.67;0.93;;;23.90;98.30;;;;;;5052320;28;20044;-68
2022/08/09 10:34:05;;;;;;;2.47;1.15;;;24.00;96.70;;;;;;5069758;28;20440;-68
2022/08/09 10:36:31;;;;;;;1.92;1.00;;;24.20;97.00;;;;;;5072638;28;20055;-67
2022/08/09 10:38:57;;;;;;;0.70;0.70;;;24.40;96.60;;;;;;5051759;28;20048;-67
2022/08/09 10:41:26;;;;;;;4.25;1.45;;;24.50;96.10;;;;;;5066990;28;20051;-67
2022/08/09 10:43:52;;;;;;;1.00;0.85;;;24.50;95.70;;;;;;5057427;28;20208;-67
2022/08/09 10:46:35;;;;;;;0.98;0.70;;;24.50;95.70;;;;;;5072197;28;20120;-67
2022/08/09 10:49:45;;;;;;;1.50;1.00;;;24.90;93.60;;;;;;5072698;28;20401;-66
2022/08/09 10:52:39;;;;;;;0.73;0.70;;;25.10;94.50;;;;;;5027335;28;20071;-66
2022/08/09 10:55:27;;;;;;;1.98;1.00;;;25.40;94.00;;;;;;5035966;28;20048;-68
2022/08/09 10:57:54;;;;;;;0.95;0.63;;;25.40;93.60;;;;;;5068070;28;20666;-67
2022/08/09 11:00:32;;;;;;;3.45;0.80;;;25.00;93.40;;;;;;5072194;28;20366;-67
2022/08/09 11:02:58;;;;;;;1.23;0.85;;;24.90;93.50;;;;;;5070761;28;20128;-67
2022/08/09 11:05:26;;;;;;;2.63;0.80;;;24.60;93.90;;;;;;5072544;28;20041;-68
2022/08/09 11:07:52;;;;;;;1.42;0.65;;;24.50;94.20;;;;;;5070835;28;20123;-68
2022/08/09 11:10:53;;;;;;;2.28;0.80;;;24.50;94.60;;;;;;5065783;28;20123;-68
2022/08/09 11:13:19;;;;;;;1.92;1.00;;;25.00;93.60;;;;;;5064869;28;20036;-66
2022/08/09 11:15:45;;;;;;;5.97;0.90;;;25.40;93.50;;;;;;5037582;28;20479;-67
2022/08/09 11:18:44;;;;;;;2.65;1.00;;;25.70;92.90;;;;;;5070164;28;20514;-68
2022/08/09 11:21:56;;;;;;;1.27;0.88;;;26.00;92.70;;;;;;5070683;28;20449;-67
2022/08/09 11:24:22;;;;;;;1.25;0.90;;;26.30;91.70;;;;;;5061820;28;20045;-69
2022/08/09 11:26:49;;;;;;;1.80;0.90;;;26.50;91.70;;;;;;5072271;28;20540;-67
2022/08/09 11:29:53;;;;;;;1.23;0.80;;;26.70;90.60;;;;;;5057471;28;20071;-67
2022/08/09 11:32:43;;;;;;;2.38;1.15;;;26.70;90.70;;;;;;5070758;28;20076;-66
2022/08/09 11:35:35;;;;;;;1.15;1.00;;;26.80;88.50;;;;;;5057951;28;20053;-67
2022/08/09 11:38:26;;;;;;;3.00;1.33;;;26.60;89.30;;;;;;5037788;28;20052;-67
2022/08/09 11:40:53;;;;;;;1.75;1.20;;;26.70;86.80;;;;;;5065743;28;20032;-66
2022/08/09 11:43:27;;;;;;;2.77;1.10;;;26.50;87.70;;;;;;5052175;28;20048;-67
2022/08/09 11:45:56;;;;;;;1.48;0.70;;;26.20;88.10;;;;;;5064762;28;20406;-68
2022/08/09 11:48:23;;;;;;;1.52;0.80;;;26.30;89.30;;;;;;5053383;28;20518;-69
2022/08/09 11:51:00;;;;;;;3.70;1.20;;;26.40;88.00;;;;;;5069017;28;20045;-67
2022/08/09 11:53:37;;;;;;;1.53;1.07;;;26.50;87.10;;;;;;5067414;28;20119;-67
2022/08/09 11:56:27;;;;;;;1.00;0.90;;;26.20;85.60;;;;;;5064284;28;20040;-66
2022/08/09 11:58:58;;;;;;;1.55;1.00;;;25.70;87.10;;;;;;5050394;28;20499;-66
2022/08/09 12:01:42;;;;;;;0.90;0.90;;;25.30;87.90;;;;;;5071662;28;20044;-68
2022/08/09 12:04:12;;;;;;;1.15;0.95;;;25.10;90.30;;;;;;5064887;28;20103;-67
2022/08/09 12:06:53;;;;;;;1.75;1.02;;;25.20;90.60;;;;;;5069784;28;20435;-67
2022/08/09 12:09:26;;;;;;;2.90;1.17;;;25.30;89.80;;;;;;5063584;28;20076;-68
2022/08/09 12:11:56;;;;;;;1.80;1.17;;;25.00;88.90;;;;;;5053770;28;20044;-68
2022/08/09 12:14:30;;;;;;;2.83;1.23;;;24.60;90.20;;;;;;5043946;28;20041;-67
2022/08/09 12:16:55;;;;;;;2.75;1.20;;;24.40;90.80;;;;;;5071468;28;20108;-67
2022/08/09 12:19:28;;;;;;;2.42;1.30;;;24.50;90.70;;;;;;5044050;28;20139;-67
2022/08/09 12:21:59;;;;;;;2.10;1.15;;;24.70;90.50;;;;;;5065465;28;20494;-67
2022/08/09 12:24:24;;;;;;;1.83;1.30;;;24.70;90.60;;;;;;5052440;28;20051;-67
2022/08/09 12:26:55;;;;;;;2.55;1.20;;;24.80;90.60;;;;;;5069096;28;20045;-67
2022/08/09 12:29:26;;;;;;;1.48;0.93;;;25.00;90.30;;;;;;5070302;28;20361;-68
2022/08/09 12:32:04;;;;;;;3.90;1.10;;;25.10;90.10;;;;;;5052386;28;20515;-67
2022/08/09 12:34:42;;;;;;;3.03;1.00;;;24.80;90.20;;;;;;5046057;28;20057;-67
2022/08/09 12:37:12;;;;;;;2.85;1.10;;;24.90;90.10;;;;;;5049891;28;20044;-66
2022/08/09 12:39:38;;;;;;;3.42;1.10;;;25.00;89.70;;;;;;5051094;28;20044;-66
2022/08/09 12:42:13;;;;;;;1.38;1.08;;;25.10;90.20;;;;;;5047159;28;20082;-66
2022/08/09 12:44:40;;;;;;;1.83;1.00;;;25.40;88.40;;;;;;5063052;28;20058;-67
2022/08/09 12:47:07;;;;;;;1.67;1.00;;;25.30;88.50;;;;;;5048614;28;20032;-67
2022/08/09 12:49:37;;;;;;;3.17;1.20;;;25.40;87.90;;;;;;5040558;28;20040;-66
2022/08/09 12:52:05;;;;;;;2.10;1.10;;;25.50;88.20;;;;;;5062331;28;20094;-66
2022/08/09 12:54:48;;;;;;;2.53;0.80;;;25.70;87.70;;;;;;5051718;28;20367;-68
2022/08/09 12:57:37;;;;;;;4.45;1.00;;;25.70;86.50;;;;;;5063035;28;20040;-66